createdAt,value
2018-08-31T00:00:07.372Z,1.60
2018-08-31T00:02:39.199Z,2.20
2018-08-31T00:05:49.494Z,1.60
2018-08-31T00:10:34.583Z,2.03
2018-08-31T00:13:02.043Z,2.20
2018-08-31T00:15:29.475Z,2.10
2018-08-31T00:17:56.763Z,2.20
2018-08-31T00:20:24.105Z,1.80
2018-08-31T00:22:51.399Z,2.30
2018-08-31T00:26:29.057Z,1.90
2018-08-31T00:29:10.143Z,2.13
2018-08-31T00:32:46.634Z,2.07
2018-08-31T00:36:27.369Z,1.93
2018-08-31T00:39:05.334Z,1.83
2018-08-31T00:43:52.728Z,1.70
2018-08-31T00:46:20.023Z,2.03
2018-08-31T00:48:47.319Z,2.43
2018-08-31T00:51:14.631Z,2.03
2018-08-31T00:53:41.966Z,1.93
2018-08-31T00:56:09.250Z,2.43
2018-08-31T00:58:36.739Z,1.90
2018-08-31T01:03:38.353Z,1.97
2018-08-31T01:06:05.687Z,2.03
2018-08-31T01:08:32.994Z,2.17
2018-08-31T01:11:00.474Z,1.90
2018-08-31T01:13:27.803Z,2.00
2018-08-31T01:15:55.154Z,1.90
2018-08-31T01:18:22.466Z,2.40
2018-08-31T01:20:49.786Z,2.03
2018-08-31T01:23:17.067Z,1.97
2018-08-31T01:25:44.420Z,1.67
2018-08-31T01:28:11.731Z,2.43
2018-08-31T01:30:39.036Z,1.97
2018-08-31T01:33:06.361Z,2.13
2018-08-31T01:35:33.687Z,2.10
2018-08-31T01:38:01.035Z,2.50
2018-08-31T01:40:28.388Z,2.37
2018-08-31T01:42:55.698Z,2.23
2018-08-31T01:45:23.009Z,1.80
2018-08-31T01:47:50.323Z,2.20
2018-08-31T01:50:17.621Z,2.07
2018-08-31T01:52:44.985Z,2.07
2018-08-31T01:55:12.451Z,2.40
2018-08-31T01:57:39.764Z,1.70
2018-08-31T02:00:07.147Z,2.00
2018-08-31T02:02:34.552Z,2.13
2018-08-31T02:05:01.864Z,1.73
2018-08-31T02:07:29.150Z,2.07
2018-08-31T02:09:56.474Z,1.87
2018-08-31T02:12:23.811Z,1.80
2018-08-31T02:14:51.099Z,2.00
2018-08-31T02:17:18.427Z,2.43
2018-08-31T02:19:45.745Z,2.00
2018-08-31T02:22:13.060Z,2.23
2018-08-31T02:24:40.391Z,2.13
2018-08-31T02:27:07.960Z,1.87
2018-08-31T02:29:35.279Z,2.00
2018-08-31T02:32:02.604Z,2.00
2018-08-31T02:34:29.955Z,2.20
2018-08-31T02:36:57.286Z,2.00
2018-08-31T02:39:24.566Z,2.50
2018-08-31T02:41:51.794Z,2.13
2018-08-31T02:44:19.093Z,2.00
2018-08-31T02:46:46.407Z,2.00
2018-08-31T02:49:13.939Z,2.03
2018-08-31T02:51:41.220Z,2.10
2018-08-31T02:54:08.518Z,2.20
2018-08-31T02:56:36.117Z,1.90
2018-08-31T02:59:03.400Z,2.27
2018-08-31T03:01:30.715Z,2.50
2018-08-31T03:03:58.019Z,2.10
2018-08-31T03:06:25.428Z,1.80
2018-08-31T03:08:52.756Z,2.10
2018-08-31T03:11:20.132Z,2.10
2018-08-31T03:13:47.432Z,2.30
2018-08-31T03:16:14.741Z,2.30
2018-08-31T03:18:42.125Z,2.00
2018-08-31T03:21:09.459Z,2.20
2018-08-31T03:23:36.766Z,2.23
2018-08-31T03:26:04.075Z,2.30
2018-08-31T03:28:31.392Z,2.10
2018-08-31T03:30:58.745Z,2.50
2018-08-31T03:33:26.066Z,1.90
2018-08-31T03:35:53.370Z,2.03
2018-08-31T03:38:20.711Z,2.20
2018-08-31T03:40:48.046Z,2.27
2018-08-31T03:43:15.343Z,2.27
2018-08-31T03:45:42.656Z,2.47
2018-08-31T03:48:09.986Z,2.10
2018-08-31T03:50:37.295Z,1.80
2018-08-31T03:53:04.639Z,2.20
2018-08-31T03:55:31.980Z,2.10
2018-08-31T03:57:59.305Z,2.23
2018-08-31T04:00:26.694Z,2.33
2018-08-31T04:02:53.995Z,3.13
2018-08-31T04:05:21.518Z,2.30
2018-08-31T04:07:48.804Z,2.40
2018-08-31T04:10:16.108Z,1.97
2018-08-31T04:12:43.575Z,2.30
2018-08-31T04:15:10.988Z,2.20
2018-08-31T04:17:38.391Z,2.27
2018-08-31T04:20:06.671Z,2.20
2018-08-31T04:22:34.013Z,2.30
2018-08-31T04:25:01.300Z,2.30
2018-08-31T04:27:28.691Z,1.90
2018-08-31T04:29:56.037Z,2.10
2018-08-31T04:32:23.319Z,2.20
2018-08-31T04:34:50.622Z,2.10
2018-08-31T04:37:17.972Z,2.80
2018-08-31T04:39:45.258Z,2.17
2018-08-31T04:42:12.589Z,2.50
2018-08-31T04:44:39.992Z,2.20
2018-08-31T04:47:07.337Z,2.20
2018-08-31T04:49:34.708Z,2.30
2018-08-31T04:52:02.052Z,2.43
2018-08-31T04:54:29.359Z,2.10
2018-08-31T04:56:56.664Z,2.57
2018-08-31T04:59:24.195Z,2.50
2018-08-31T05:01:51.479Z,3.37
2018-08-31T05:04:18.856Z,3.00
2018-08-31T05:06:46.178Z,2.30
2018-08-31T05:09:13.480Z,2.30
2018-08-31T05:11:41.240Z,2.00
2018-08-31T05:14:08.575Z,2.40
2018-08-31T05:16:35.911Z,2.10
2018-08-31T05:19:03.291Z,2.47
2018-08-31T05:21:30.733Z,2.27
2018-08-31T05:23:58.063Z,2.50
2018-08-31T05:26:25.959Z,2.17
2018-08-31T05:28:53.544Z,2.00
2018-08-31T05:31:20.843Z,2.07
2018-08-31T05:33:48.179Z,2.20
2018-08-31T05:36:15.536Z,2.20
2018-08-31T05:38:43.873Z,2.20
2018-08-31T05:41:11.175Z,2.00
2018-08-31T05:43:38.523Z,2.00
2018-08-31T05:46:06.138Z,2.03
2018-08-31T05:48:33.433Z,2.00
2018-08-31T05:51:07.615Z,2.00
2018-08-31T05:53:34.952Z,1.90
2018-08-31T05:56:02.240Z,1.97
2018-08-31T05:58:29.612Z,2.10
2018-08-31T06:00:56.944Z,2.10
2018-08-31T06:03:24.240Z,1.90
2018-08-31T06:05:51.581Z,1.80
2018-08-31T06:08:18.935Z,2.00
2018-08-31T06:10:46.244Z,2.53
2018-08-31T06:13:13.629Z,2.27
2018-08-31T06:15:40.952Z,2.17
2018-08-31T06:18:08.595Z,2.13
2018-08-31T06:20:35.909Z,2.20
2018-08-31T06:23:03.539Z,1.97
2018-08-31T06:25:30.879Z,2.00
2018-08-31T06:27:58.208Z,2.53
2018-08-31T06:30:25.771Z,1.93
2018-08-31T06:32:53.071Z,2.20
2018-08-31T06:35:20.460Z,2.00
2018-08-31T06:37:47.913Z,1.90
2018-08-31T06:42:49.444Z,2.10
2018-08-31T06:45:16.799Z,2.53
2018-08-31T06:47:44.320Z,2.67
2018-08-31T06:50:11.699Z,2.20
2018-08-31T06:52:38.998Z,2.07
2018-08-31T06:55:12.976Z,2.40
2018-08-31T06:57:40.299Z,2.00
2018-08-31T07:00:07.960Z,1.73
2018-08-31T07:02:35.308Z,2.30
2018-08-31T07:05:02.629Z,2.13
2018-08-31T07:07:29.981Z,1.83
2018-08-31T07:09:57.696Z,2.37
2018-08-31T07:12:25.098Z,2.20
2018-08-31T07:14:52.439Z,2.00
2018-08-31T07:17:19.960Z,1.70
2018-08-31T07:19:47.291Z,1.87
2018-08-31T07:22:14.612Z,2.30
2018-08-31T07:24:42.624Z,2.10
2018-08-31T07:27:09.957Z,2.27
2018-08-31T07:29:37.327Z,2.10
2018-08-31T07:32:04.923Z,2.43
2018-08-31T07:34:32.248Z,2.27
2018-08-31T07:36:59.567Z,2.27
2018-08-31T07:39:26.890Z,2.20
2018-08-31T07:41:54.200Z,2.27
2018-08-31T07:46:55.763Z,2.17
2018-08-31T07:49:23.259Z,2.47
2018-08-31T07:51:50.573Z,1.60
2018-08-31T07:54:17.907Z,1.77
2018-08-31T07:56:45.253Z,1.50
2018-08-31T07:59:12.572Z,1.80
2018-08-31T08:01:39.937Z,1.73
2018-08-31T08:04:07.269Z,2.20
2018-08-31T08:06:34.569Z,2.40
2018-08-31T08:09:01.935Z,2.33
2018-08-31T08:11:29.544Z,2.37
2018-08-31T08:13:56.884Z,2.33
2018-08-31T08:16:24.235Z,2.20
2018-08-31T08:18:51.604Z,2.63
2018-08-31T08:21:18.993Z,2.43
2018-08-31T08:23:46.521Z,1.87
2018-08-31T08:26:13.828Z,2.30
2018-08-31T08:28:41.160Z,1.90
2018-08-31T08:31:08.495Z,2.20
2018-08-31T08:33:35.830Z,1.83
2018-08-31T08:36:03.216Z,1.87
2018-08-31T08:38:30.498Z,1.90
2018-08-31T08:40:57.844Z,1.73
2018-08-31T08:43:25.164Z,2.00
2018-08-31T08:45:52.562Z,2.33
2018-08-31T08:48:19.982Z,2.63
2018-08-31T08:50:47.282Z,1.83
2018-08-31T08:53:14.580Z,2.00
2018-08-31T08:55:41.893Z,1.60
2018-08-31T08:58:09.217Z,2.00
2018-08-31T09:00:36.523Z,2.33
2018-08-31T09:03:04.458Z,1.60
2018-08-31T09:05:31.898Z,1.70
2018-08-31T09:07:59.179Z,1.60
2018-08-31T09:10:26.505Z,1.77
2018-08-31T09:12:53.811Z,2.00
2018-08-31T09:15:21.271Z,1.90
2018-08-31T09:17:49.939Z,1.93
2018-08-31T09:20:17.363Z,1.67
2018-08-31T09:22:44.567Z,1.60
2018-08-31T09:25:11.880Z,1.63
2018-08-31T09:27:39.288Z,1.37
2018-08-31T09:30:11.255Z,1.50
2018-08-31T09:32:38.616Z,2.10
2018-08-31T09:35:05.999Z,1.37
2018-08-31T09:37:33.324Z,1.57
2018-08-31T09:40:00.694Z,1.60
2018-08-31T09:42:28.207Z,2.10
2018-08-31T09:44:55.526Z,1.80
2018-08-31T09:47:22.819Z,1.50
2018-08-31T09:49:50.212Z,1.63
2018-08-31T09:52:17.847Z,1.80
2018-08-31T09:54:45.128Z,1.67
2018-08-31T09:57:12.472Z,2.17
2018-08-31T09:59:43.413Z,1.67
2018-08-31T10:02:15.311Z,1.47
2018-08-31T10:04:43.327Z,1.77
2018-08-31T10:07:10.637Z,1.83
2018-08-31T10:09:37.970Z,2.10
2018-08-31T10:12:05.382Z,1.70
2018-08-31T10:14:32.670Z,1.87
2018-08-31T10:16:59.986Z,1.60
2018-08-31T10:19:27.306Z,1.70
2018-08-31T10:21:54.651Z,1.40
2018-08-31T10:24:21.967Z,1.70
2018-08-31T10:26:49.507Z,1.63
2018-08-31T10:29:16.823Z,1.40
2018-08-31T10:31:44.159Z,1.33
2018-08-31T10:34:11.863Z,1.40
2018-08-31T10:36:39.336Z,1.10
2018-08-31T10:39:09.857Z,1.33
2018-08-31T10:41:37.183Z,0.93
2018-08-31T10:44:04.507Z,1.40
2018-08-31T10:46:31.928Z,1.27
2018-08-31T10:48:59.327Z,1.10
2018-08-31T10:51:26.660Z,1.27
2018-08-31T10:53:53.991Z,1.20
2018-08-31T10:56:21.317Z,1.67
2018-08-31T10:58:48.650Z,1.47
2018-08-31T11:01:16.155Z,1.37
2018-08-31T11:03:43.520Z,1.40
2018-08-31T11:06:10.831Z,1.07
2018-08-31T11:08:38.172Z,1.10
2018-08-31T11:11:05.990Z,1.10
2018-08-31T11:13:33.299Z,1.50
2018-08-31T11:16:00.909Z,1.33
2018-08-31T11:18:28.270Z,1.37
2018-08-31T11:20:55.687Z,1.60
2018-08-31T11:23:23.000Z,1.27
2018-08-31T11:25:50.323Z,1.13
2018-08-31T11:28:17.575Z,1.30
2018-08-31T11:30:44.889Z,1.30
2018-08-31T11:33:12.231Z,1.20
2018-08-31T11:35:39.553Z,1.20
2018-08-31T11:38:06.888Z,1.27
2018-08-31T11:40:34.448Z,1.33
2018-08-31T11:43:01.735Z,1.13
2018-08-31T11:45:29.079Z,1.23
2018-08-31T11:47:56.423Z,1.10
2018-08-31T11:50:23.719Z,1.30
2018-08-31T11:52:51.028Z,1.23
2018-08-31T11:55:18.440Z,1.43
2018-08-31T11:57:45.727Z,1.57
2018-08-31T12:00:13.035Z,1.20
2018-08-31T12:02:40.379Z,1.83
2018-08-31T12:05:07.727Z,1.23
2018-08-31T12:07:35.568Z,1.10
2018-08-31T12:10:03.037Z,0.80
2018-08-31T12:12:30.352Z,1.23
2018-08-31T12:14:57.675Z,1.23
2018-08-31T12:17:25.026Z,2.17
2018-08-31T12:19:52.360Z,1.57
2018-08-31T12:22:19.679Z,1.27
2018-08-31T12:24:47.027Z,1.20
2018-08-31T12:27:14.353Z,1.50
2018-08-31T12:29:41.944Z,1.50
2018-08-31T12:32:09.243Z,1.20
2018-08-31T12:34:36.581Z,1.13
2018-08-31T12:37:03.927Z,1.20
2018-08-31T12:39:31.240Z,1.50
2018-08-31T12:41:58.669Z,1.20
2018-08-31T12:44:26.079Z,1.60
2018-08-31T12:46:53.445Z,1.37
2018-08-31T12:49:20.800Z,1.00
2018-08-31T12:51:48.105Z,1.10
2018-08-31T12:54:15.402Z,1.20
2018-08-31T12:56:43.061Z,1.20
2018-08-31T12:59:10.407Z,1.10
2018-08-31T13:01:37.740Z,1.40
2018-08-31T13:04:05.639Z,1.10
2018-08-31T13:06:32.979Z,1.20
2018-08-31T13:09:01.155Z,1.20
2018-08-31T13:11:28.721Z,0.90
2018-08-31T13:13:56.016Z,0.90
2018-08-31T13:16:23.349Z,1.33
2018-08-31T13:18:50.699Z,1.43
2018-08-31T13:21:18.059Z,1.43
2018-08-31T13:23:45.391Z,1.40
2018-08-31T13:26:12.729Z,1.60
2018-08-31T13:28:40.064Z,1.17
2018-08-31T13:31:07.450Z,1.50
2018-08-31T13:33:34.747Z,1.00
2018-08-31T13:36:02.092Z,1.23
2018-08-31T13:38:29.403Z,1.53
2018-08-31T13:40:56.727Z,1.77
2018-08-31T13:43:24.224Z,1.33
2018-08-31T13:45:51.532Z,1.40
2018-08-31T13:48:18.848Z,1.20
2018-08-31T13:50:46.198Z,1.97
2018-08-31T13:53:13.495Z,1.73
2018-08-31T13:55:40.825Z,1.60
2018-08-31T13:58:08.137Z,1.33
2018-08-31T14:00:35.458Z,1.23
2018-08-31T14:03:02.767Z,1.23
2018-08-31T14:05:30.081Z,1.40
2018-08-31T14:07:57.432Z,1.47
2018-08-31T14:10:24.767Z,1.73
2018-08-31T14:12:52.152Z,1.20
2018-08-31T14:15:19.436Z,1.33
2018-08-31T14:17:46.904Z,1.20
2018-08-31T14:20:14.311Z,1.50
2018-08-31T14:22:41.701Z,1.23
2018-08-31T14:25:09.255Z,1.80
2018-08-31T14:27:36.567Z,1.23
2018-08-31T14:30:04.102Z,1.40
2018-08-31T14:32:38.046Z,1.30
2018-08-31T14:35:05.401Z,1.13
2018-08-31T14:37:32.789Z,1.30
2018-08-31T14:40:00.276Z,1.33
2018-08-31T14:42:27.610Z,1.33
2018-08-31T14:44:54.932Z,1.40
2018-08-31T14:47:22.236Z,1.10
2018-08-31T14:49:49.555Z,1.60
2018-08-31T14:52:16.898Z,0.90
2018-08-31T14:54:44.239Z,1.40
2018-08-31T14:57:11.547Z,1.50
2018-08-31T14:59:38.860Z,1.60
2018-08-31T15:02:06.341Z,1.30
2018-08-31T15:04:33.639Z,1.20
2018-08-31T15:07:01.008Z,1.23
2018-08-31T15:09:28.359Z,1.50
2018-08-31T15:11:55.668Z,1.27
2018-08-31T15:14:22.961Z,1.63
2018-08-31T15:16:50.462Z,1.53
2018-08-31T15:19:17.784Z,1.30
2018-08-31T15:21:45.083Z,1.30
2018-08-31T15:24:12.401Z,1.17
2018-08-31T15:26:39.724Z,1.30
2018-08-31T15:29:07.045Z,1.10
2018-08-31T15:31:34.391Z,1.27
2018-08-31T15:34:02.325Z,1.57
2018-08-31T15:36:29.664Z,1.17
2018-08-31T15:38:56.986Z,1.00
2018-08-31T15:41:24.313Z,1.10
2018-08-31T15:43:51.879Z,1.77
2018-08-31T15:46:19.212Z,1.30
2018-08-31T15:48:46.526Z,1.60
2018-08-31T15:51:14.042Z,1.30
2018-08-31T15:53:41.347Z,1.70
2018-08-31T15:56:08.703Z,1.40
2018-08-31T15:58:36.207Z,1.57
2018-08-31T16:01:03.635Z,1.87
2018-08-31T16:03:30.939Z,1.30
2018-08-31T16:05:58.479Z,1.50
2018-08-31T16:08:25.823Z,1.47
2018-08-31T16:10:53.128Z,1.70
2018-08-31T16:13:20.431Z,1.90
2018-08-31T16:15:47.739Z,1.80
2018-08-31T16:18:15.055Z,1.67
2018-08-31T16:20:42.416Z,1.80
2018-08-31T16:23:09.727Z,2.00
2018-08-31T16:25:37.150Z,1.60
2018-08-31T16:28:04.597Z,1.90
2018-08-31T16:30:32.007Z,1.90
2018-08-31T16:32:59.379Z,1.87
2018-08-31T16:35:26.768Z,1.70
2018-08-31T16:37:54.098Z,1.20
2018-08-31T16:40:21.425Z,1.63
2018-08-31T16:42:48.827Z,1.43
2018-08-31T16:45:16.151Z,1.30
2018-08-31T16:47:43.713Z,1.80
2018-08-31T16:50:11.188Z,1.20
2018-08-31T16:52:38.540Z,1.50
2018-08-31T16:55:06.000Z,1.50
2018-08-31T16:57:33.579Z,1.63
2018-08-31T17:00:00.902Z,1.30
2018-08-31T17:02:28.385Z,2.23
2018-08-31T17:04:55.716Z,1.50
2018-08-31T17:07:23.041Z,1.53
2018-08-31T17:09:50.367Z,2.20
2018-08-31T17:12:17.903Z,1.33
2018-08-31T17:14:45.292Z,1.90
2018-08-31T17:17:12.650Z,1.63
2018-08-31T17:19:39.963Z,1.50
2018-08-31T17:22:07.411Z,1.50
2018-08-31T17:24:34.747Z,1.13
2018-08-31T17:27:07.779Z,1.80
2018-08-31T17:29:39.748Z,1.60
2018-08-31T17:33:15.527Z,1.67
2018-08-31T17:35:48.577Z,1.43
2018-08-31T17:38:17.727Z,1.33
2018-08-31T17:40:45.096Z,1.70
2018-08-31T17:43:12.358Z,1.63
2018-08-31T17:45:39.663Z,1.70
2018-08-31T17:48:07.000Z,1.60
2018-08-31T17:50:34.296Z,1.77
2018-08-31T17:53:01.710Z,1.50
2018-08-31T17:55:29.027Z,1.60
2018-08-31T17:57:56.416Z,1.60
2018-08-31T18:00:23.716Z,1.43
2018-08-31T18:02:51.035Z,1.70
2018-08-31T18:05:18.361Z,1.70
2018-08-31T18:07:45.643Z,1.70
2018-08-31T18:10:12.938Z,1.43
2018-08-31T18:12:40.207Z,1.67
2018-08-31T18:15:07.489Z,2.07
2018-08-31T18:17:34.775Z,1.80
2018-08-31T18:20:02.138Z,1.63
2018-08-31T18:22:29.487Z,2.27
2018-08-31T18:24:56.770Z,1.47
2018-08-31T18:27:24.043Z,1.50
2018-08-31T18:29:51.371Z,1.87
2018-08-31T18:32:18.688Z,1.70
2018-08-31T18:34:46.003Z,1.63
2018-08-31T18:37:13.379Z,1.97
2018-08-31T18:39:40.651Z,1.50
2018-08-31T18:42:07.937Z,1.50
2018-08-31T18:44:35.424Z,1.63
2018-08-31T18:47:02.710Z,1.60
2018-08-31T18:49:30.031Z,1.90
2018-08-31T18:51:57.339Z,1.90
2018-08-31T18:54:24.655Z,2.00
2018-08-31T18:56:51.994Z,2.00
2018-08-31T18:59:19.346Z,1.93
2018-08-31T19:01:46.645Z,1.80
2018-08-31T19:04:13.949Z,1.93
2018-08-31T19:06:41.259Z,2.10
2018-08-31T19:09:08.755Z,1.77
2018-08-31T19:11:36.091Z,1.77
2018-08-31T19:14:03.685Z,2.03
2018-08-31T19:16:30.980Z,2.23
2018-08-31T19:18:58.374Z,1.80
2018-08-31T19:21:25.772Z,1.90
2018-08-31T19:23:53.152Z,1.77
2018-08-31T19:26:20.436Z,2.03
2018-08-31T19:28:47.779Z,1.93
2018-08-31T19:31:15.568Z,2.63
2018-08-31T19:33:42.984Z,2.30
2018-08-31T19:36:10.432Z,2.00
2018-08-31T19:38:37.893Z,1.90
2018-08-31T19:41:05.315Z,1.93
2018-08-31T19:43:32.616Z,2.10
2018-08-31T19:46:00.021Z,1.80
2018-08-31T19:48:27.321Z,2.37
2018-08-31T19:50:54.672Z,2.70
2018-08-31T19:53:21.978Z,2.83
2018-08-31T19:55:49.322Z,2.63
2018-08-31T19:58:16.657Z,2.33
2018-08-31T20:00:44.036Z,2.60
2018-08-31T20:03:11.356Z,3.17
2018-08-31T20:05:38.846Z,2.37
2018-08-31T20:08:06.233Z,2.27
2018-08-31T20:10:33.570Z,2.03
2018-08-31T20:13:00.889Z,2.23
2018-08-31T20:15:28.282Z,2.70
2018-08-31T20:17:55.641Z,3.10
2018-08-31T20:20:22.998Z,2.37
2018-08-31T20:22:50.440Z,2.77
2018-08-31T20:25:17.772Z,2.40
2018-08-31T20:27:45.107Z,2.53
2018-08-31T20:30:12.432Z,2.30
2018-08-31T20:32:39.825Z,2.10
2018-08-31T20:35:07.224Z,2.13
2018-08-31T20:37:34.529Z,1.73
2018-08-31T20:40:01.923Z,1.80
2018-08-31T20:42:29.351Z,2.20
2018-08-31T20:44:56.677Z,2.27
2018-08-31T20:47:24.100Z,2.23
2018-08-31T20:49:51.361Z,2.27
2018-08-31T20:52:18.695Z,2.63
2018-08-31T20:54:46.102Z,1.93
2018-08-31T20:57:13.427Z,2.17
2018-08-31T20:59:40.739Z,2.27
2018-08-31T21:02:08.096Z,2.03
2018-08-31T21:04:35.436Z,2.37
2018-08-31T21:07:02.785Z,1.90
2018-08-31T21:09:30.127Z,2.10
2018-08-31T21:11:57.451Z,2.60
2018-08-31T21:14:24.755Z,2.20
2018-08-31T21:16:52.102Z,1.90
2018-08-31T21:19:19.607Z,1.90
2018-08-31T21:21:46.902Z,1.87
2018-08-31T21:24:14.315Z,2.03
2018-08-31T21:26:41.687Z,1.93
2018-08-31T21:29:09.036Z,2.23
2018-08-31T21:31:36.467Z,2.40
2018-08-31T21:34:03.819Z,2.37
2018-08-31T21:36:31.140Z,2.40
2018-08-31T21:38:58.432Z,2.00
2018-08-31T21:41:25.736Z,2.10
2018-08-31T21:43:53.575Z,1.93
2018-08-31T21:46:20.902Z,2.30
2018-08-31T21:48:48.359Z,2.40
2018-08-31T21:51:15.703Z,2.10
2018-08-31T21:53:43.177Z,2.00
2018-08-31T21:56:10.494Z,2.40
2018-08-31T21:58:37.803Z,2.17
2018-08-31T22:01:10.968Z,2.20
2018-08-31T22:03:38.315Z,2.20
2018-08-31T22:06:05.630Z,2.30
2018-08-31T22:08:32.951Z,2.40
2018-08-31T22:11:00.616Z,2.37
2018-08-31T22:13:28.007Z,2.57
2018-08-31T22:15:55.475Z,2.90
2018-08-31T22:18:22.786Z,3.20
2018-08-31T22:20:50.099Z,3.10
2018-08-31T22:23:17.390Z,3.17
2018-08-31T22:25:44.708Z,3.20
2018-08-31T22:28:11.998Z,2.60
2018-08-31T22:30:39.552Z,2.50
2018-08-31T22:33:06.836Z,2.50
2018-08-31T22:35:34.130Z,2.90
2018-08-31T22:38:01.435Z,2.63
2018-08-31T22:40:28.720Z,2.50
2018-08-31T22:42:56.052Z,2.67
2018-08-31T22:45:23.372Z,2.70
2018-08-31T22:47:50.735Z,2.57
2018-08-31T22:50:18.057Z,2.50
2018-08-31T22:52:45.445Z,2.30
2018-08-31T22:55:12.791Z,2.70
2018-08-31T22:57:40.088Z,2.43
2018-08-31T23:00:07.513Z,2.43
2018-08-31T23:02:34.806Z,2.60
2018-08-31T23:05:03.321Z,2.70
2018-08-31T23:07:36.514Z,2.50
2018-08-31T23:10:04.078Z,2.80
2018-08-31T23:12:31.375Z,2.40
2018-08-31T23:14:58.985Z,2.20
2018-08-31T23:17:27.803Z,2.90
2018-08-31T23:19:55.871Z,2.47
2018-08-31T23:22:23.688Z,2.63
2018-08-31T23:24:51.115Z,3.23
2018-08-31T23:27:18.418Z,2.40
2018-08-31T23:29:45.764Z,2.53
2018-08-31T23:32:13.114Z,2.67
2018-08-31T23:34:40.463Z,2.63
2018-08-31T23:37:07.789Z,2.80
2018-08-31T23:39:35.116Z,2.60
2018-08-31T23:42:02.423Z,2.77
2018-08-31T23:44:29.727Z,2.33
2018-08-31T23:46:57.031Z,2.50
2018-08-31T23:49:24.393Z,2.30
2018-08-31T23:51:51.743Z,2.70
2018-08-31T23:54:19.057Z,2.40
2018-08-31T23:56:46.491Z,2.43
2018-08-31T23:59:13.794Z,2.77
